42J

Keystone Airpark

Keystone Heights, Florida, USA
METAR K42J 210935Z AUTO 05010G15KT 9SM SCT006 BKN019 17/17 A3017 RMK AO1 TSNO
Observed Flight Rules
Apr-21 @ 09:35 UTC (7 minutes ago) Marginal Visual Flight Rules
Wind Visibility Clouds
50° at 10 knots
 Gusting to 15 knots
9 miles
  • Scattered at 600' AGL
  • Broken at 1,900' AGL
Temperatures Readings
Current 17°C / 63°F
Dewpoint 17°C / 63°F
Humidity 100%
Altimeter 30.17" Hg
Pressure 1022 hPa
Elevation 60
METAR K42J 210935Z AUTO 05010G15KT 9SM SCT006 BKN019 17/17 A3017 RMK AO1 TSNO
Observed Flight Rules
Apr-21 @ 09:35 UTC
(7 minutes ago)
MVFR
Wind Visibility
50° at 10 knots
 Gusting to 15 knots
9 miles
Clouds
  • Scattered at 600' AGL
  • Broken at 1,900' AGL
Temperature Dewpoint
17°C / 63°F 17°C / 63°F
Humidity Altimeter Pressure
100% 30.17" Hg 1022 hPa